sensor_id;sensor_type;location;lat;lon;timestamp;temperature;humidity
8892;DHT22;4482;54.332;10.118;2023-07-02T00:02:09;16.50;99.90
8892;DHT22;4482;54.332;10.118;2023-07-02T00:04:36;16.40;99.90
8892;DHT22;4482;54.332;10.118;2023-07-02T00:07:02;16.40;99.90
8892;DHT22;4482;54.332;10.118;2023-07-02T00:09:31;16.40;99.90
8892;DHT22;4482;54.332;10.118;2023-07-02T00:11:58;16.40;99.90
8892;DHT22;4482;54.332;10.118;2023-07-02T00:14:24;16.40;99.90
8892;DHT22;4482;54.332;10.118;2023-07-02T00:16:51;16.40;99.90
8892;DHT22;4482;54.332;10.118;2023-07-02T00:19:18;16.40;99.90
8892;DHT22;4482;54.332;10.118;2023-07-02T00:21:44;16.50;99.90
8892;DHT22;4482;54.332;10.118;2023-07-02T00:24:11;16.40;99.90
8892;DHT22;4482;54.332;10.118;2023-07-02T00:26:39;16.30;99.90
8892;DHT22;4482;54.332;10.118;2023-07-02T00:29:06;16.30;99.90
8892;DHT22;4482;54.332;10.118;2023-07-02T00:31:34;16.10;99.90
8892;DHT22;4482;54.332;10.118;2023-07-02T00:34:01;16.00;99.90
8892;DHT22;4482;54.332;10.118;2023-07-02T00:36:28;15.90;99.90
8892;DHT22;4482;54.332;10.118;2023-07-02T00:38:55;15.80;99.90
8892;DHT22;4482;54.332;10.118;2023-07-02T00:41:22;15.70;99.90
8892;DHT22;4482;54.332;10.118;2023-07-02T00:43:51;15.70;99.90
8892;DHT22;4482;54.332;10.118;2023-07-02T00:46:20;15.70;99.90
8892;DHT22;4482;54.332;10.118;2023-07-02T00:48:47;15.70;99.90
8892;DHT22;4482;54.332;10.118;2023-07-02T00:51:14;15.60;99.90
8892;DHT22;4482;54.332;10.118;2023-07-02T00:53:41;15.60;99.90
8892;DHT22;4482;54.332;10.118;2023-07-02T00:56:08;15.60;99.90
8892;DHT22;4482;54.332;10.118;2023-07-02T00:58:34;15.60;99.90
8892;DHT22;4482;54.332;10.118;2023-07-02T01:01:05;15.60;99.90
8892;DHT22;4482;54.332;10.118;2023-07-02T01:03:32;15.60;99.90
8892;DHT22;4482;54.332;10.118;2023-07-02T01:06:03;15.50;99.90
8892;DHT22;4482;54.332;10.118;2023-07-02T01:08:29;15.60;99.90
8892;DHT22;4482;54.332;10.118;2023-07-02T01:10:56;15.50;99.90
8892;DHT22;4482;54.332;10.118;2023-07-02T01:13:23;15.50;99.90
8892;DHT22;4482;54.332;10.118;2023-07-02T01:15:50;15.50;99.90
8892;DHT22;4482;54.332;10.118;2023-07-02T01:18:18;15.50;99.90
8892;DHT22;4482;54.332;10.118;2023-07-02T01:20:47;15.50;99.90
8892;DHT22;4482;54.332;10.118;2023-07-02T01:23:14;15.50;99.90
8892;DHT22;4482;54.332;10.118;2023-07-02T01:25:41;15.50;99.90
8892;DHT22;4482;54.332;10.118;2023-07-02T01:28:10;15.50;99.90
8892;DHT22;4482;54.332;10.118;2023-07-02T01:30:39;15.60;99.90
8892;DHT22;4482;54.332;10.118;2023-07-02T01:33:05;15.60;99.90
8892;DHT22;4482;54.332;10.118;2023-07-02T01:35:32;15.60;99.90
8892;DHT22;4482;54.332;10.118;2023-07-02T01:38:00;15.60;99.90
8892;DHT22;4482;54.332;10.118;2023-07-02T01:40:27;15.70;99.90
8892;DHT22;4482;54.332;10.118;2023-07-02T01:42:53;15.60;99.90
8892;DHT22;4482;54.332;10.118;2023-07-02T01:45:20;15.60;99.90
8892;DHT22;4482;54.332;10.118;2023-07-02T01:47:46;15.60;99.90
8892;DHT22;4482;54.332;10.118;2023-07-02T01:50:13;15.60;99.90
8892;DHT22;4482;54.332;10.118;2023-07-02T01:52:40;15.50;99.90
8892;DHT22;4482;54.332;10.118;2023-07-02T01:55:08;15.50;99.90
8892;DHT22;4482;54.332;10.118;2023-07-02T01:57:35;15.40;99.90
8892;DHT22;4482;54.332;10.118;2023-07-02T02:00:02;15.40;99.90
8892;DHT22;4482;54.332;10.118;2023-07-02T02:02:29;15.40;99.90
8892;DHT22;4482;54.332;10.118;2023-07-02T02:04:55;15.40;99.90
8892;DHT22;4482;54.332;10.118;2023-07-02T02:07:22;15.40;99.90
8892;DHT22;4482;54.332;10.118;2023-07-02T02:09:49;15.30;99.90
8892;DHT22;4482;54.332;10.118;2023-07-02T02:12:17;15.30;99.90
8892;DHT22;4482;54.332;10.118;2023-07-02T02:14:44;15.30;99.90
8892;DHT22;4482;54.332;10.118;2023-07-02T02:17:11;15.30;99.90
8892;DHT22;4482;54.332;10.118;2023-07-02T02:19:37;15.30;99.90
8892;DHT22;4482;54.332;10.118;2023-07-02T02:22:04;15.40;99.90
8892;DHT22;4482;54.332;10.118;2023-07-02T02:24:31;15.30;99.90
8892;DHT22;4482;54.332;10.118;2023-07-02T02:26:57;15.30;99.90
8892;DHT22;4482;54.332;10.118;2023-07-02T02:29:25;15.20;99.90
8892;DHT22;4482;54.332;10.118;2023-07-02T02:31:52;15.20;99.90
8892;DHT22;4482;54.332;10.118;2023-07-02T02:34:18;15.10;99.90
8892;DHT22;4482;54.332;10.118;2023-07-02T02:36:45;15.10;99.90
8892;DHT22;4482;54.332;10.118;2023-07-02T02:39:12;15.00;99.90
8892;DHT22;4482;54.332;10.118;2023-07-02T02:41:39;15.00;99.90
8892;DHT22;4482;54.332;10.118;2023-07-02T02:44:06;15.00;99.90
8892;DHT22;4482;54.332;10.118;2023-07-02T02:46:34;15.00;99.90
8892;DHT22;4482;54.332;10.118;2023-07-02T02:49:00;14.90;99.90
8892;DHT22;4482;54.332;10.118;2023-07-02T02:51:27;14.90;99.90
8892;DHT22;4482;54.332;10.118;2023-07-02T02:53:54;14.90;99.90
8892;DHT22;4482;54.332;10.118;2023-07-02T02:56:20;14.90;99.90
8892;DHT22;4482;54.332;10.118;2023-07-02T02:58:47;14.90;99.90
8892;DHT22;4482;54.332;10.118;2023-07-02T03:01:14;14.90;99.90
8892;DHT22;4482;54.332;10.118;2023-07-02T03:03:42;14.80;99.90
8892;DHT22;4482;54.332;10.118;2023-07-02T03:06:11;14.90;99.90
8892;DHT22;4482;54.332;10.118;2023-07-02T03:08:38;15.00;99.90
8892;DHT22;4482;54.332;10.118;2023-07-02T03:11:05;15.00;99.90
8892;DHT22;4482;54.332;10.118;2023-07-02T03:13:32;14.90;99.90
8892;DHT22;4482;54.332;10.118;2023-07-02T03:15:58;14.80;99.90
8892;DHT22;4482;54.332;10.118;2023-07-02T03:18:25;14.80;99.90
8892;DHT22;4482;54.332;10.118;2023-07-02T03:20:53;14.80;99.90
8892;DHT22;4482;54.332;10.118;2023-07-02T03:23:19;14.70;99.90
8892;DHT22;4482;54.332;10.118;2023-07-02T03:25:46;14.80;99.90
8892;DHT22;4482;54.332;10.118;2023-07-02T03:28:13;14.80;99.90
8892;DHT22;4482;54.332;10.118;2023-07-02T03:30:39;14.80;99.90
8892;DHT22;4482;54.332;10.118;2023-07-02T03:33:07;14.70;99.90
8892;DHT22;4482;54.332;10.118;2023-07-02T03:35:34;14.70;99.90
8892;DHT22;4482;54.332;10.118;2023-07-02T03:38:02;14.70;99.90
8892;DHT22;4482;54.332;10.118;2023-07-02T03:40:29;14.80;99.90
8892;DHT22;4482;54.332;10.118;2023-07-02T03:42:55;14.90;99.90
8892;DHT22;4482;54.332;10.118;2023-07-02T03:45:22;14.90;99.90
8892;DHT22;4482;54.332;10.118;2023-07-02T03:47:49;15.00;99.90
8892;DHT22;4482;54.332;10.118;2023-07-02T03:50:15;15.00;99.90
8892;DHT22;4482;54.332;10.118;2023-07-02T03:52:43;15.00;99.90
8892;DHT22;4482;54.332;10.118;2023-07-02T03:55:11;15.10;99.90
8892;DHT22;4482;54.332;10.118;2023-07-02T03:57:38;15.10;99.90
8892;DHT22;4482;54.332;10.118;2023-07-02T04:00:05;15.20;99.90
8892;DHT22;4482;54.332;10.118;2023-07-02T04:02:32;15.30;99.90
8892;DHT22;4482;54.332;10.118;2023-07-02T04:04:59;15.30;99.90
8892;DHT22;4482;54.332;10.118;2023-07-02T04:07:26;15.40;99.90
8892;DHT22;4482;54.332;10.118;2023-07-02T04:09:53;15.40;99.90
8892;DHT22;4482;54.332;10.118;2023-07-02T04:12:21;15.50;99.90
8892;DHT22;4482;54.332;10.118;2023-07-02T04:14:48;15.60;99.90
8892;DHT22;4482;54.332;10.118;2023-07-02T04:17:14;15.60;99.90
8892;DHT22;4482;54.332;10.118;2023-07-02T04:19:41;15.70;99.90
8892;DHT22;4482;54.332;10.118;2023-07-02T04:22:07;15.70;99.90
8892;DHT22;4482;54.332;10.118;2023-07-02T04:24:34;15.80;99.90
8892;DHT22;4482;54.332;10.118;2023-07-02T04:27:01;15.90;99.90
8892;DHT22;4482;54.332;10.118;2023-07-02T04:29:29;16.00;99.90
8892;DHT22;4482;54.332;10.118;2023-07-02T04:31:55;16.00;99.90
8892;DHT22;4482;54.332;10.118;2023-07-02T04:34:22;16.20;99.90
8892;DHT22;4482;54.332;10.118;2023-07-02T04:36:49;16.40;99.90
8892;DHT22;4482;54.332;10.118;2023-07-02T04:39:16;16.50;99.90
8892;DHT22;4482;54.332;10.118;2023-07-02T04:41:43;16.40;99.90
8892;DHT22;4482;54.332;10.118;2023-07-02T04:44:09;16.30;99.90
8892;DHT22;4482;54.332;10.118;2023-07-02T04:46:37;16.10;99.90
8892;DHT22;4482;54.332;10.118;2023-07-02T04:49:04;16.00;99.90
8892;DHT22;4482;54.332;10.118;2023-07-02T04:51:31;16.00;99.90
8892;DHT22;4482;54.332;10.118;2023-07-02T04:53:57;16.10;99.90
8892;DHT22;4482;54.332;10.118;2023-07-02T04:56:24;16.10;99.90
8892;DHT22;4482;54.332;10.118;2023-07-02T04:58:52;16.20;99.90
8892;DHT22;4482;54.332;10.118;2023-07-02T05:01:18;16.30;99.90
8892;DHT22;4482;54.332;10.118;2023-07-02T05:03:47;16.50;99.90
8892;DHT22;4482;54.332;10.118;2023-07-02T05:06:14;16.70;99.90
8892;DHT22;4482;54.332;10.118;2023-07-02T05:08:40;16.60;99.90
8892;DHT22;4482;54.332;10.118;2023-07-02T05:11:07;16.60;99.90
8892;DHT22;4482;54.332;10.118;2023-07-02T05:13:34;16.50;99.90
8892;DHT22;4482;54.332;10.118;2023-07-02T05:16:01;16.50;99.90
8892;DHT22;4482;54.332;10.118;2023-07-02T05:18:27;16.60;99.90
8892;DHT22;4482;54.332;10.118;2023-07-02T05:20:55;17.10;99.90
8892;DHT22;4482;54.332;10.118;2023-07-02T05:23:22;17.80;99.90
8892;DHT22;4482;54.332;10.118;2023-07-02T05:25:49;17.40;99.90
8892;DHT22;4482;54.332;10.118;2023-07-02T05:28:15;16.50;99.90
8892;DHT22;4482;54.332;10.118;2023-07-02T05:30:42;15.80;99.90
8892;DHT22;4482;54.332;10.118;2023-07-02T05:33:08;15.30;99.90
8892;DHT22;4482;54.332;10.118;2023-07-02T05:35:35;15.00;99.90
8892;DHT22;4482;54.332;10.118;2023-07-02T05:38:03;14.90;99.90
8892;DHT22;4482;54.332;10.118;2023-07-02T05:40:30;14.90;99.90
8892;DHT22;4482;54.332;10.118;2023-07-02T05:42:57;15.00;99.90
8892;DHT22;4482;54.332;10.118;2023-07-02T05:45:23;15.00;99.90
8892;DHT22;4482;54.332;10.118;2023-07-02T05:47:52;15.10;99.90
8892;DHT22;4482;54.332;10.118;2023-07-02T05:50:19;15.00;99.90
8892;DHT22;4482;54.332;10.118;2023-07-02T05:52:46;15.00;99.90
8892;DHT22;4482;54.332;10.118;2023-07-02T05:55:14;15.10;99.90
8892;DHT22;4482;54.332;10.118;2023-07-02T05:57:41;15.30;99.90
8892;DHT22;4482;54.332;10.118;2023-07-02T06:00:08;15.40;99.90
8892;DHT22;4482;54.332;10.118;2023-07-02T06:02:35;15.50;99.90
8892;DHT22;4482;54.332;10.118;2023-07-02T06:05:01;15.70;99.90
8892;DHT22;4482;54.332;10.118;2023-07-02T06:07:28;15.80;99.90
8892;DHT22;4482;54.332;10.118;2023-07-02T06:09:54;16.10;99.90
8892;DHT22;4482;54.332;10.118;2023-07-02T06:12:22;16.20;99.90
8892;DHT22;4482;54.332;10.118;2023-07-02T06:14:49;16.80;99.90
8892;DHT22;4482;54.332;10.118;2023-07-02T06:17:16;17.60;99.90
8892;DHT22;4482;54.332;10.118;2023-07-02T06:19:44;18.20;99.90
8892;DHT22;4482;54.332;10.118;2023-07-02T06:22:11;18.70;99.90
8892;DHT22;4482;54.332;10.118;2023-07-02T06:24:37;19.20;99.90
8892;DHT22;4482;54.332;10.118;2023-07-02T06:27:04;19.60;99.90
8892;DHT22;4482;54.332;10.118;2023-07-02T06:29:32;19.80;99.90
8892;DHT22;4482;54.332;10.118;2023-07-02T06:31:59;20.30;99.90
8892;DHT22;4482;54.332;10.118;2023-07-02T06:34:26;20.70;99.90
8892;DHT22;4482;54.332;10.118;2023-07-02T06:36:52;20.30;99.90
8892;DHT22;4482;54.332;10.118;2023-07-02T06:39:19;19.30;99.90
8892;DHT22;4482;54.332;10.118;2023-07-02T06:41:46;17.90;99.90
8892;DHT22;4482;54.332;10.118;2023-07-02T06:44:12;17.00;99.90
8892;DHT22;4482;54.332;10.118;2023-07-02T06:46:40;16.40;99.90
8892;DHT22;4482;54.332;10.118;2023-07-02T06:49:07;15.80;99.90
8892;DHT22;4482;54.332;10.118;2023-07-02T06:51:34;15.40;99.90
8892;DHT22;4482;54.332;10.118;2023-07-02T06:54:00;14.90;99.90
8892;DHT22;4482;54.332;10.118;2023-07-02T06:56:27;14.50;99.90
8892;DHT22;4482;54.332;10.118;2023-07-02T06:58:54;14.20;99.90
8892;DHT22;4482;54.332;10.118;2023-07-02T07:01:20;14.00;99.90
8892;DHT22;4482;54.332;10.118;2023-07-02T07:03:48;13.90;99.90
8892;DHT22;4482;54.332;10.118;2023-07-02T07:06:15;14.00;99.90
8892;DHT22;4482;54.332;10.118;2023-07-02T07:08:41;14.50;99.90
8892;DHT22;4482;54.332;10.118;2023-07-02T07:11:08;15.10;99.90
8892;DHT22;4482;54.332;10.118;2023-07-02T07:13:35;15.10;99.90
8892;DHT22;4482;54.332;10.118;2023-07-02T07:16:02;14.80;99.90
8892;DHT22;4482;54.332;10.118;2023-07-02T07:18:28;14.80;99.90
8892;DHT22;4482;54.332;10.118;2023-07-02T07:20:56;14.80;99.90
8892;DHT22;4482;54.332;10.118;2023-07-02T07:23:23;14.70;99.90
8892;DHT22;4482;54.332;10.118;2023-07-02T07:25:50;14.50;99.90
8892;DHT22;4482;54.332;10.118;2023-07-02T07:28:16;14.40;99.90
8892;DHT22;4482;54.332;10.118;2023-07-02T07:30:43;14.40;99.90
8892;DHT22;4482;54.332;10.118;2023-07-02T07:33:10;14.50;99.90
8892;DHT22;4482;54.332;10.118;2023-07-02T07:35:37;14.60;99.90
8892;DHT22;4482;54.332;10.118;2023-07-02T07:38:05;14.70;99.90
8892;DHT22;4482;54.332;10.118;2023-07-02T07:40:33;14.90;99.90
8892;DHT22;4482;54.332;10.118;2023-07-02T07:43:00;15.50;99.90
8892;DHT22;4482;54.332;10.118;2023-07-02T07:45:27;16.80;99.90
8892;DHT22;4482;54.332;10.118;2023-07-02T07:47:53;18.40;99.90
8892;DHT22;4482;54.332;10.118;2023-07-02T07:50:20;20.00;99.90
8892;DHT22;4482;54.332;10.118;2023-07-02T07:52:47;21.50;99.90
8892;DHT22;4482;54.332;10.118;2023-07-02T07:55:15;22.90;99.90
8892;DHT22;4482;54.332;10.118;2023-07-02T07:57:42;23.70;99.90
8892;DHT22;4482;54.332;10.118;2023-07-02T08:00:09;23.80;99.90
8892;DHT22;4482;54.332;10.118;2023-07-02T08:02:36;24.00;99.90
8892;DHT22;4482;54.332;10.118;2023-07-02T08:05:03;25.10;99.90
8892;DHT22;4482;54.332;10.118;2023-07-02T08:07:30;26.00;99.90
8892;DHT22;4482;54.332;10.118;2023-07-02T08:09:57;26.90;99.90
8892;DHT22;4482;54.332;10.118;2023-07-02T08:12:25;27.70;99.90
8892;DHT22;4482;54.332;10.118;2023-07-02T08:14:54;26.90;99.90
8892;DHT22;4482;54.332;10.118;2023-07-02T08:17:21;23.60;99.90
8892;DHT22;4482;54.332;10.118;2023-07-02T08:19:48;20.60;99.90
8892;DHT22;4482;54.332;10.118;2023-07-02T08:22:14;18.80;99.90
8892;DHT22;4482;54.332;10.118;2023-07-02T08:24:41;18.10;99.90
8892;DHT22;4482;54.332;10.118;2023-07-02T08:27:08;17.90;99.90
8892;DHT22;4482;54.332;10.118;2023-07-02T08:29:37;18.50;99.90
8892;DHT22;4482;54.332;10.118;2023-07-02T08:32:03;18.80;99.90
8892;DHT22;4482;54.332;10.118;2023-07-02T08:34:31;19.60;99.90
8892;DHT22;4482;54.332;10.118;2023-07-02T08:36:59;20.80;99.90
8892;DHT22;4482;54.332;10.118;2023-07-02T08:39:26;21.70;99.90
8892;DHT22;4482;54.332;10.118;2023-07-02T08:41:52;21.70;99.90
8892;DHT22;4482;54.332;10.118;2023-07-02T08:44:19;22.20;99.90
8892;DHT22;4482;54.332;10.118;2023-07-02T08:46:48;23.00;99.90
8892;DHT22;4482;54.332;10.118;2023-07-02T08:49:16;23.40;99.90
8892;DHT22;4482;54.332;10.118;2023-07-02T08:51:44;24.20;99.90
8892;DHT22;4482;54.332;10.118;2023-07-02T08:54:11;25.60;99.90
8892;DHT22;4482;54.332;10.118;2023-07-02T08:56:37;26.70;99.90
8892;DHT22;4482;54.332;10.118;2023-07-02T08:59:06;27.50;98.40
8892;DHT22;4482;54.332;10.118;2023-07-02T09:01:32;28.10;96.90
8892;DHT22;4482;54.332;10.118;2023-07-02T09:04:00;28.20;94.90
8892;DHT22;4482;54.332;10.118;2023-07-02T09:06:27;27.80;95.00
8892;DHT22;4482;54.332;10.118;2023-07-02T09:09:02;27.70;94.90
8892;DHT22;4482;54.332;10.118;2023-07-02T09:11:29;27.20;95.20
8892;DHT22;4482;54.332;10.118;2023-07-02T09:13:56;27.60;94.90
8892;DHT22;4482;54.332;10.118;2023-07-02T09:16:26;28.40;94.50
8892;DHT22;4482;54.332;10.118;2023-07-02T09:19:01;28.00;94.00
8892;DHT22;4482;54.332;10.118;2023-07-02T09:21:37;28.20;93.60
8892;DHT22;4482;54.332;10.118;2023-07-02T09:24:11;27.40;94.70
8892;DHT22;4482;54.332;10.118;2023-07-02T09:26:38;27.00;93.70
8892;DHT22;4482;54.332;10.118;2023-07-02T09:29:07;27.00;94.40
8892;DHT22;4482;54.332;10.118;2023-07-02T09:31:42;27.10;93.70
8892;DHT22;4482;54.332;10.118;2023-07-02T09:34:10;27.10;93.90
8892;DHT22;4482;54.332;10.118;2023-07-02T09:36:37;26.50;94.30
8892;DHT22;4482;54.332;10.118;2023-07-02T09:39:06;23.80;99.90
8892;DHT22;4482;54.332;10.118;2023-07-02T09:41:33;21.80;99.90
8892;DHT22;4482;54.332;10.118;2023-07-02T09:44:00;20.80;99.90
8892;DHT22;4482;54.332;10.118;2023-07-02T09:46:27;21.70;99.90
8892;DHT22;4482;54.332;10.118;2023-07-02T09:48:54;22.40;99.90
8892;DHT22;4482;54.332;10.118;2023-07-02T09:51:23;22.60;99.90
8892;DHT22;4482;54.332;10.118;2023-07-02T09:53:50;23.40;99.90
8892;DHT22;4482;54.332;10.118;2023-07-02T09:56:17;25.10;99.90
8892;DHT22;4482;54.332;10.118;2023-07-02T09:58:46;26.70;99.90
8892;DHT22;4482;54.332;10.118;2023-07-02T10:01:13;25.40;99.90
8892;DHT22;4482;54.332;10.118;2023-07-02T10:03:40;26.00;99.90
8892;DHT22;4482;54.332;10.118;2023-07-02T10:06:06;26.80;98.80
8892;DHT22;4482;54.332;10.118;2023-07-02T10:08:35;27.20;97.40
8892;DHT22;4482;54.332;10.118;2023-07-02T10:11:13;26.20;96.60
8892;DHT22;4482;54.332;10.118;2023-07-02T10:13:40;26.00;95.90
8892;DHT22;4482;54.332;10.118;2023-07-02T10:16:07;26.50;94.90
8892;DHT22;4482;54.332;10.118;2023-07-02T10:18:34;26.80;94.50
8892;DHT22;4482;54.332;10.118;2023-07-02T10:21:12;27.10;94.30
8892;DHT22;4482;54.332;10.118;2023-07-02T10:23:40;27.70;93.10
8892;DHT22;4482;54.332;10.118;2023-07-02T10:26:13;27.00;92.40
8892;DHT22;4482;54.332;10.118;2023-07-02T10:28:39;24.90;95.40
8892;DHT22;4482;54.332;10.118;2023-07-02T10:31:17;23.10;98.80
8892;DHT22;4482;54.332;10.118;2023-07-02T10:33:43;21.70;99.90
8892;DHT22;4482;54.332;10.118;2023-07-02T10:36:17;20.50;99.90
8892;DHT22;4482;54.332;10.118;2023-07-02T10:38:45;21.00;99.90
8892;DHT22;4482;54.332;10.118;2023-07-02T10:41:12;23.50;99.90
8892;DHT22;4482;54.332;10.118;2023-07-02T10:43:38;25.20;99.90
8892;DHT22;4482;54.332;10.118;2023-07-02T10:46:05;26.20;99.60
8892;DHT22;4482;54.332;10.118;2023-07-02T10:48:32;26.90;96.70
8892;DHT22;4482;54.332;10.118;2023-07-02T10:50:58;27.50;94.60
8892;DHT22;4482;54.332;10.118;2023-07-02T10:53:25;27.50;93.80
8892;DHT22;4482;54.332;10.118;2023-07-02T10:55:56;27.60;93.00
8892;DHT22;4482;54.332;10.118;2023-07-02T10:58:25;28.10;92.60
8892;DHT22;4482;54.332;10.118;2023-07-02T11:00:51;27.90;92.10
8892;DHT22;4482;54.332;10.118;2023-07-02T11:03:19;28.10;91.30
8892;DHT22;4482;54.332;10.118;2023-07-02T11:05:46;27.80;90.80
8892;DHT22;4482;54.332;10.118;2023-07-02T11:08:13;27.00;90.50
8892;DHT22;4482;54.332;10.118;2023-07-02T11:10:40;24.20;94.20
8892;DHT22;4482;54.332;10.118;2023-07-02T11:13:11;24.00;96.70
8892;DHT22;4482;54.332;10.118;2023-07-02T11:15:38;25.20;94.50
8892;DHT22;4482;54.332;10.118;2023-07-02T11:18:10;26.50;92.60
8892;DHT22;4482;54.332;10.118;2023-07-02T11:20:37;26.30;91.50
8892;DHT22;4482;54.332;10.118;2023-07-02T11:23:04;26.40;90.10
8892;DHT22;4482;54.332;10.118;2023-07-02T11:25:31;25.40;90.20
8892;DHT22;4482;54.332;10.118;2023-07-02T11:28:04;25.40;90.90
8892;DHT22;4482;54.332;10.118;2023-07-02T11:30:32;25.50;91.00
8892;DHT22;4482;54.332;10.118;2023-07-02T11:33:00;25.60;91.10
8892;DHT22;4482;54.332;10.118;2023-07-02T11:35:33;24.10;93.00
8892;DHT22;4482;54.332;10.118;2023-07-02T11:38:00;22.40;96.00
8892;DHT22;4482;54.332;10.118;2023-07-02T11:40:27;22.20;99.30
8892;DHT22;4482;54.332;10.118;2023-07-02T11:42:54;22.10;99.40
8892;DHT22;4482;54.332;10.118;2023-07-02T11:45:20;22.00;99.30
8892;DHT22;4482;54.332;10.118;2023-07-02T11:47:48;21.60;99.90
8892;DHT22;4482;54.332;10.118;2023-07-02T11:50:15;21.70;99.90
8892;DHT22;4482;54.332;10.118;2023-07-02T11:52:41;21.40;98.50
8892;DHT22;4482;54.332;10.118;2023-07-02T11:55:08;20.50;99.70
8892;DHT22;4482;54.332;10.118;2023-07-02T11:57:35;20.60;99.90
8892;DHT22;4482;54.332;10.118;2023-07-02T12:00:02;21.00;99.90
8892;DHT22;4482;54.332;10.118;2023-07-02T12:02:28;20.70;99.10
8892;DHT22;4482;54.332;10.118;2023-07-02T12:04:56;20.10;99.90
8892;DHT22;4482;54.332;10.118;2023-07-02T12:07:23;19.60;99.90
8892;DHT22;4482;54.332;10.118;2023-07-02T12:09:50;19.60;99.90
8892;DHT22;4482;54.332;10.118;2023-07-02T12:12:17;19.70;99.90
8892;DHT22;4482;54.332;10.118;2023-07-02T12:14:43;20.00;99.90
8892;DHT22;4482;54.332;10.118;2023-07-02T12:17:10;20.20;99.90
8892;DHT22;4482;54.332;10.118;2023-07-02T12:19:37;20.00;99.90
8892;DHT22;4482;54.332;10.118;2023-07-02T12:22:05;20.20;99.90
8892;DHT22;4482;54.332;10.118;2023-07-02T12:24:32;20.00;99.90
8892;DHT22;4482;54.332;10.118;2023-07-02T12:27:02;19.90;99.90
8892;DHT22;4482;54.332;10.118;2023-07-02T12:29:28;20.10;99.90
8892;DHT22;4482;54.332;10.118;2023-07-02T12:31:55;20.20;99.90
8892;DHT22;4482;54.332;10.118;2023-07-02T12:34:22;20.40;99.90
8892;DHT22;4482;54.332;10.118;2023-07-02T12:36:48;20.60;99.90
8892;DHT22;4482;54.332;10.118;2023-07-02T12:39:16;20.50;99.90
8892;DHT22;4482;54.332;10.118;2023-07-02T12:41:43;20.30;99.90
8892;DHT22;4482;54.332;10.118;2023-07-02T12:44:10;20.30;99.90
8892;DHT22;4482;54.332;10.118;2023-07-02T12:46:36;20.20;99.90
8892;DHT22;4482;54.332;10.118;2023-07-02T12:49:03;20.10;99.90
8892;DHT22;4482;54.332;10.118;2023-07-02T12:51:30;19.90;99.90
8892;DHT22;4482;54.332;10.118;2023-07-02T12:53:57;20.00;99.90
8892;DHT22;4482;54.332;10.118;2023-07-02T12:56:25;20.10;99.90
8892;DHT22;4482;54.332;10.118;2023-07-02T12:58:51;20.20;99.90
8892;DHT22;4482;54.332;10.118;2023-07-02T13:01:18;20.40;99.90
8892;DHT22;4482;54.332;10.118;2023-07-02T13:03:45;20.40;99.00
8892;DHT22;4482;54.332;10.118;2023-07-02T13:06:12;20.40;97.30
8892;DHT22;4482;54.332;10.118;2023-07-02T13:08:39;20.30;97.90
8892;DHT22;4482;54.332;10.118;2023-07-02T13:11:06;20.20;98.50
8892;DHT22;4482;54.332;10.118;2023-07-02T13:13:35;20.00;99.40
8892;DHT22;4482;54.332;10.118;2023-07-02T13:16:02;19.90;99.90
8892;DHT22;4482;54.332;10.118;2023-07-02T13:18:29;19.80;99.30
8892;DHT22;4482;54.332;10.118;2023-07-02T13:20:55;19.50;99.90
8892;DHT22;4482;54.332;10.118;2023-07-02T13:23:22;19.50;99.00
8892;DHT22;4482;54.332;10.118;2023-07-02T13:25:49;19.40;97.80
8892;DHT22;4482;54.332;10.118;2023-07-02T13:28:15;19.40;98.20
8892;DHT22;4482;54.332;10.118;2023-07-02T13:30:44;19.40;98.60
8892;DHT22;4482;54.332;10.118;2023-07-02T13:33:10;19.50;99.30
8892;DHT22;4482;54.332;10.118;2023-07-02T13:35:37;19.60;99.80
8892;DHT22;4482;54.332;10.118;2023-07-02T13:38:03;19.60;99.90
8892;DHT22;4482;54.332;10.118;2023-07-02T13:40:31;19.80;99.90
8892;DHT22;4482;54.332;10.118;2023-07-02T13:42:57;19.80;99.90
8892;DHT22;4482;54.332;10.118;2023-07-02T13:45:24;19.80;99.90
8892;DHT22;4482;54.332;10.118;2023-07-02T13:47:52;19.70;99.90
8892;DHT22;4482;54.332;10.118;2023-07-02T13:50:19;19.70;99.90
8892;DHT22;4482;54.332;10.118;2023-07-02T13:52:45;19.20;99.90
8892;DHT22;4482;54.332;10.118;2023-07-02T13:55:13;19.10;99.90
8892;DHT22;4482;54.332;10.118;2023-07-02T13:57:40;19.00;99.90
8892;DHT22;4482;54.332;10.118;2023-07-02T14:00:08;18.90;99.90
8892;DHT22;4482;54.332;10.118;2023-07-02T14:02:35;18.80;99.90
8892;DHT22;4482;54.332;10.118;2023-07-02T14:05:05;18.60;99.90
8892;DHT22;4482;54.332;10.118;2023-07-02T14:07:32;18.20;99.90
8892;DHT22;4482;54.332;10.118;2023-07-02T14:09:58;17.60;99.90
8892;DHT22;4482;54.332;10.118;2023-07-02T14:12:25;17.30;99.90
8892;DHT22;4482;54.332;10.118;2023-07-02T14:14:52;17.10;99.90
8892;DHT22;4482;54.332;10.118;2023-07-02T14:17:20;16.90;99.90
8892;DHT22;4482;54.332;10.118;2023-07-02T14:19:47;16.90;99.90
8892;DHT22;4482;54.332;10.118;2023-07-02T14:22:14;16.70;99.90
8892;DHT22;4482;54.332;10.118;2023-07-02T14:24:41;16.30;99.90
8892;DHT22;4482;54.332;10.118;2023-07-02T14:27:07;16.00;99.90
8892;DHT22;4482;54.332;10.118;2023-07-02T14:29:34;15.90;99.90
8892;DHT22;4482;54.332;10.118;2023-07-02T14:32:01;15.70;99.90
8892;DHT22;4482;54.332;10.118;2023-07-02T14:34:29;15.60;99.90
8892;DHT22;4482;54.332;10.118;2023-07-02T14:36:56;15.60;99.90
8892;DHT22;4482;54.332;10.118;2023-07-02T14:39:22;15.80;99.90
8892;DHT22;4482;54.332;10.118;2023-07-02T14:41:49;15.90;99.90
8892;DHT22;4482;54.332;10.118;2023-07-02T14:44:16;15.80;99.90
8892;DHT22;4482;54.332;10.118;2023-07-02T14:46:42;15.80;99.90
8892;DHT22;4482;54.332;10.118;2023-07-02T14:49:09;15.90;99.90
8892;DHT22;4482;54.332;10.118;2023-07-02T14:51:39;16.30;99.90
8892;DHT22;4482;54.332;10.118;2023-07-02T14:54:06;16.70;99.90
8892;DHT22;4482;54.332;10.118;2023-07-02T14:56:33;17.00;99.90
8892;DHT22;4482;54.332;10.118;2023-07-02T14:59:01;17.20;99.90
8892;DHT22;4482;54.332;10.118;2023-07-02T15:01:27;17.30;99.90
8892;DHT22;4482;54.332;10.118;2023-07-02T15:03:54;17.50;99.90
8892;DHT22;4482;54.332;10.118;2023-07-02T15:06:21;17.70;99.90
8892;DHT22;4482;54.332;10.118;2023-07-02T15:08:49;17.80;99.90
8892;DHT22;4482;54.332;10.118;2023-07-02T15:11:17;17.90;99.90
8892;DHT22;4482;54.332;10.118;2023-07-02T15:13:43;17.90;99.90
8892;DHT22;4482;54.332;10.118;2023-07-02T15:16:11;18.00;99.90
8892;DHT22;4482;54.332;10.118;2023-07-02T15:18:38;18.10;99.90
8892;DHT22;4482;54.332;10.118;2023-07-02T15:21:05;18.20;99.90
8892;DHT22;4482;54.332;10.118;2023-07-02T15:23:32;18.30;99.90
8892;DHT22;4482;54.332;10.118;2023-07-02T15:26:01;18.30;99.90
8892;DHT22;4482;54.332;10.118;2023-07-02T15:28:28;18.40;99.90
8892;DHT22;4482;54.332;10.118;2023-07-02T15:30:57;18.40;99.90
8892;DHT22;4482;54.332;10.118;2023-07-02T15:33:24;18.30;99.90
8892;DHT22;4482;54.332;10.118;2023-07-02T15:35:51;18.20;99.90
8892;DHT22;4482;54.332;10.118;2023-07-02T15:38:17;18.20;99.90
8892;DHT22;4482;54.332;10.118;2023-07-02T15:40:45;18.20;99.90
8892;DHT22;4482;54.332;10.118;2023-07-02T15:43:13;18.20;99.90
8892;DHT22;4482;54.332;10.118;2023-07-02T15:45:40;18.10;99.90